Time;durP1;ratioP1;P1;durP2;ratioP2;P2;SDS_P1;SDS_P2;PMS_P1;PMS_P2;Temp;Humidity;BMP_temperature;BMP_pressure;BME280_temperature;BME280_humidity;BME280_pressure;Samples;Min_cycle;Max_cycle;Signal;HPM_P1;HPM_P2
2024/02/25 00:02:09;;;;;;;1.23;0.60;;;;;;;3.69;76.83;99218.13;10219358;28;20514;-77
2024/02/25 00:07:12;;;;;;;1.30;0.80;;;;;;;3.70;76.72;99222.47;10225507;28;20067;-77
2024/02/25 00:12:17;;;;;;;3.90;1.10;;;;;;;3.67;76.88;99212.06;10226518;28;20237;-77
2024/02/25 00:17:20;;;;;;;6.43;1.90;;;;;;;3.56;76.42;99207.50;10233499;28;20119;-77
2024/02/25 00:22:24;;;;;;;2.28;1.10;;;;;;;3.66;74.47;99205.06;10239203;28;20246;-77
2024/02/25 00:27:28;;;;;;;2.70;0.90;;;;;;;3.76;75.35;99197.28;10232827;28;20069;-77
2024/02/25 00:32:31;;;;;;;2.28;1.13;;;;;;;3.73;73.38;99203.69;10218104;28;20051;-77
2024/02/25 00:37:34;;;;;;;4.45;1.13;;;;;;;3.80;72.71;99198.78;10222924;28;20055;-77
2024/02/25 00:42:38;;;;;;;2.72;0.77;;;;;;;3.95;72.61;99201.19;10232654;28;20529;-77
2024/02/25 00:47:41;;;;;;;6.93;1.38;;;;;;;3.94;72.12;99206.59;10224436;28;20054;-77
2024/02/25 00:52:44;;;;;;;1.58;0.80;;;;;;;3.98;71.78;99183.28;10237185;28;20055;-77
2024/02/25 00:57:49;;;;;;;3.80;1.20;;;;;;;3.98;72.52;99189.47;10233045;28;20050;-77
2024/02/25 01:02:51;;;;;;;4.65;1.30;;;;;;;3.95;72.97;99179.09;10238323;28;20082;-77
2024/02/25 01:07:55;;;;;;;3.25;1.48;;;;;;;3.96;73.60;99175.44;10228365;28;20049;-77
2024/02/25 01:12:59;;;;;;;2.13;1.10;;;;;;;3.85;74.49;99162.09;10227023;28;20055;-78
2024/02/25 01:18:02;;;;;;;2.42;1.50;;;;;;;3.81;75.19;99164.13;10231391;28;20050;-77
2024/02/25 01:23:09;;;;;;;2.13;1.40;;;;;;;3.81;75.81;99155.31;10222487;28;20055;-77
2024/02/25 01:28:13;;;;;;;2.10;1.17;;;;;;;3.90;75.81;99149.34;10224347;28;20058;-77
2024/02/25 01:33:16;;;;;;;3.00;1.17;;;;;;;3.99;76.18;99147.81;10228807;28;20058;-77
2024/02/25 01:38:20;;;;;;;1.33;1.00;;;;;;;3.98;76.80;99140.78;10218537;28;20066;-77
2024/02/25 01:43:24;;;;;;;4.10;1.30;;;;;;;4.00;76.90;99137.06;10226519;28;20050;-77
2024/02/25 01:48:27;;;;;;;1.63;1.10;;;;;;;3.97;77.45;99131.97;10225030;28;20058;-77
2024/02/25 01:53:31;;;;;;;2.72;1.33;;;;;;;4.08;77.73;99125.88;10224389;28;20094;-77
2024/02/25 01:58:35;;;;;;;1.60;0.82;;;;;;;4.06;78.55;99123.34;10217416;28;20121;-77
2024/02/25 02:03:38;;;;;;;4.00;1.23;;;;;;;4.08;78.51;99126.72;10233764;28;20059;-77
2024/02/25 02:08:41;;;;;;;2.47;1.10;;;;;;;4.16;78.07;99115.50;10233108;28;20054;-77
2024/02/25 02:13:46;;;;;;;1.30;0.70;;;;;;;4.42;77.16;99104.75;10253169;28;20106;-77
2024/02/25 02:18:49;;;;;;;1.52;0.90;;;;;;;4.31;77.64;99101.09;10223527;28;20052;-77
2024/02/25 02:23:54;;;;;;;1.58;0.80;;;;;;;4.30;77.64;99087.91;10211106;28;20599;-77
2024/02/25 02:28:57;;;;;;;2.97;0.98;;;;;;;4.38;77.70;99085.50;10227223;28;20078;-77
2024/02/25 02:34:00;;;;;;;1.85;0.90;;;;;;;4.33;78.01;99085.00;10240709;28;20046;-77
2024/02/25 02:39:05;;;;;;;2.10;1.05;;;;;;;4.44;77.65;99082.38;10224938;28;20245;-78
2024/02/25 02:44:08;;;;;;;1.20;1.08;;;;;;;4.48;77.49;99069.72;10218443;28;20058;-77
2024/02/25 02:49:11;;;;;;;3.83;1.45;;;;;;;4.50;77.32;99081.94;10213526;28;20051;-77
2024/02/25 02:54:16;;;;;;;2.08;1.52;;;;;;;4.49;77.55;99071.41;10213543;28;20058;-77
2024/02/25 02:59:20;;;;;;;1.40;1.30;;;;;;;4.58;77.04;99068.00;10223637;28;20062;-77
2024/02/25 03:04:23;;;;;;;2.47;0.88;;;;;;;4.54;76.88;99071.91;10222267;28;20054;-77
2024/02/25 03:09:28;;;;;;;1.25;1.08;;;;;;;4.36;77.28;99071.47;10231100;28;20042;-77
2024/02/25 03:14:31;;;;;;;2.25;1.73;;;;;;;4.31;77.53;99055.06;10237870;28;20058;-77
2024/02/25 03:19:33;;;;;;;2.15;1.40;;;;;;;4.53;76.55;99065.72;10220360;28;20054;-77
2024/02/25 03:24:38;;;;;;;1.70;1.20;;;;;;;4.45;76.88;99061.97;10208752;29;20787;-77
2024/02/25 03:29:42;;;;;;;1.70;1.20;;;;;;;4.52;76.50;99061.34;10208835;28;20698;-77
2024/02/25 03:34:45;;;;;;;2.38;1.40;;;;;;;4.57;76.41;99058.34;10211042;28;20057;-77
2024/02/25 03:39:49;;;;;;;2.13;1.35;;;;;;;4.61;76.33;99055.34;10219680;28;20058;-77
2024/02/25 03:44:52;;;;;;;1.45;1.33;;;;;;;4.62;75.90;99054.38;10237717;28;20050;-77
2024/02/25 03:49:55;;;;;;;1.67;1.20;;;;;;;4.72;75.96;99049.19;10225201;28;20047;-77
2024/02/25 03:54:59;;;;;;;2.42;1.40;;;;;;;4.83;75.57;99059.00;10228623;28;21525;-78
2024/02/25 04:00:03;;;;;;;2.50;1.70;;;;;;;4.79;77.18;99057.53;10188991;29;20075;-78
2024/02/25 04:05:09;;;;;;;1.75;1.50;;;;;;;4.78;79.19;99059.34;10204528;28;20672;-78
2024/02/25 04:10:14;;;;;;;2.25;1.55;;;;;;;4.70;82.33;99050.28;10235667;28;20046;-78
2024/02/25 04:15:19;;;;;;;2.42;1.60;;;;;;;4.70;82.80;99053.78;10219132;28;20046;-77
2024/02/25 04:20:24;;;;;;;1.73;1.58;;;;;;;4.59;83.86;99051.13;10224726;28;20074;-77
2024/02/25 04:25:29;;;;;;;2.75;1.50;;;;;;;4.49;85.03;99050.13;10228818;28;20169;-76
2024/02/25 04:30:32;;;;;;;3.38;2.10;;;;;;;4.55;87.20;99053.19;10221735;28;20047;-77
2024/02/25 04:35:36;;;;;;;2.90;2.28;;;;;;;4.45;88.39;99060.16;10225607;28;20079;-76
2024/02/25 04:40:41;;;;;;;4.65;2.65;;;;;;;4.35;89.61;99059.16;10236532;28;20062;-77
2024/02/25 04:45:43;;;;;;;5.68;2.35;;;;;;;4.44;90.47;99054.94;10239170;28;20088;-76
2024/02/25 04:50:46;;;;;;;2.60;2.22;;;;;;;4.30;91.15;99056.84;10210479;28;20063;-77
2024/02/25 04:55:51;;;;;;;3.25;2.90;;;;;;;4.25;93.63;99052.84;10207843;28;20046;-78
2024/02/25 05:00:54;;;;;;;4.18;3.13;;;;;;;4.33;95.65;99050.44;10217608;28;20165;-78
2024/02/25 05:05:57;;;;;;;4.20;2.97;;;;;;;4.26;95.88;99049.22;10232540;28;20075;-78
2024/02/25 05:11:01;;;;;;;3.33;2.63;;;;;;;4.15;95.10;99042.91;10221898;28;20474;-78
2024/02/25 05:16:06;;;;;;;3.38;2.10;;;;;;;4.20;92.88;99057.66;10226115;28;20051;-77
2024/02/25 05:21:09;;;;;;;5.63;3.03;;;;;;;4.35;91.85;99053.84;10222210;28;20057;-78
2024/02/25 05:26:13;;;;;;;5.97;2.97;;;;;;;4.44;91.18;99058.44;10226411;28;20109;-78
2024/02/25 05:31:16;;;;;;;7.50;3.80;;;;;;;4.51;90.11;99070.31;10213812;29;20043;-77
2024/02/25 05:36:22;;;;;;;6.22;2.47;;;;;;;4.45;88.03;99068.13;10224071;28;20055;-77
2024/02/25 05:41:27;;;;;;;5.13;3.08;;;;;;;4.57;87.95;99058.34;10225419;28;20363;-77
2024/02/25 05:46:30;;;;;;;2.97;2.67;;;;;;;4.62;87.50;99057.03;10234961;28;20051;-77
2024/02/25 05:51:33;;;;;;;4.30;3.40;;;;;;;4.59;87.16;99065.25;10215395;28;20057;-77
2024/02/25 05:56:37;;;;;;;5.60;3.00;;;;;;;4.51;86.22;99062.34;10231031;28;20043;-77
2024/02/25 06:01:40;;;;;;;4.82;2.88;;;;;;;4.64;85.37;99070.22;10224352;28;20669;-77
2024/02/25 06:06:43;;;;;;;4.60;2.70;;;;;;;4.62;85.84;99069.50;10222665;28;20062;-78
2024/02/25 06:11:48;;;;;;;4.43;2.38;;;;;;;4.68;84.98;99074.31;10246514;28;20078;-77
2024/02/25 06:16:51;;;;;;;2.42;1.80;;;;;;;4.59;83.97;99070.56;10230432;28;20430;-77
2024/02/25 06:21:54;;;;;;;3.33;2.40;;;;;;;4.53;84.05;99067.56;10230399;28;20113;-77
2024/02/25 06:26:59;;;;;;;3.33;2.13;;;;;;;4.51;83.47;99066.81;10233665;28;20051;-77
2024/02/25 06:32:02;;;;;;;4.70;1.90;;;;;;;4.55;82.96;99071.78;10235485;28;20050;-77
2024/02/25 06:37:05;;;;;;;2.83;1.88;;;;;;;4.50;83.07;99067.75;10235447;28;20075;-77
2024/02/25 06:42:10;;;;;;;3.33;1.50;;;;;;;4.41;83.68;99071.97;10239068;28;20047;-78
2024/02/25 06:47:13;;;;;;;2.08;1.77;;;;;;;4.51;83.31;99075.63;10223814;28;20657;-78
2024/02/25 06:52:16;;;;;;;2.97;1.58;;;;;;;4.61;83.33;99081.09;10230514;28;20058;-77
2024/02/25 06:57:20;;;;;;;2.45;1.60;;;;;;;4.53;82.81;99079.03;10224681;28;20051;-78
2024/02/25 07:02:23;;;;;;;1.85;1.23;;;;;;;4.63;82.19;99089.78;10231834;28;20576;-78
2024/02/25 07:07:26;;;;;;;1.83;1.30;;;;;;;4.76;82.10;99090.53;10237430;28;20050;-77
2024/02/25 07:12:31;;;;;;;1.55;1.23;;;;;;;4.73;82.08;99093.44;10210266;29;20555;-77
2024/02/25 07:17:34;;;;;;;1.02;0.93;;;;;;;4.86;81.60;99090.69;10222539;28;20061;-77
2024/02/25 07:22:37;;;;;;;1.88;1.10;;;;;;;4.61;84.10;99103.22;10226971;28;20062;-78
2024/02/25 07:27:41;;;;;;;0.98;0.85;;;;;;;4.59;91.25;99098.97;10232725;28;20065;-77
2024/02/25 07:32:45;;;;;;;1.52;1.40;;;;;;;4.44;96.39;99100.97;10231251;28;20055;-78
2024/02/25 07:37:49;;;;;;;2.13;1.38;;;;;;;4.38;99.28;99104.97;10241998;28;20046;-77
2024/02/25 07:42:53;;;;;;;1.38;1.23;;;;;;;4.31;99.05;99105.56;10230574;28;20039;-79
2024/02/25 07:47:56;;;;;;;3.65;2.30;;;;;;;4.55;98.72;99100.16;10232702;28;20053;-78
2024/02/25 07:52:59;;;;;;;1.80;1.42;;;;;;;4.60;98.13;99101.50;10237139;28;20074;-79
2024/02/25 07:58:05;;;;;;;1.30;1.20;;;;;;;4.54;94.70;99107.31;10239385;28;20058;-78
2024/02/25 08:03:09;;;;;;;0.70;0.70;;;;;;;4.72;94.11;99098.91;10243619;28;20129;-79
2024/02/25 08:08:12;;;;;;;1.15;1.02;;;;;;;4.76;92.33;99109.16;10228255;28;20047;-79
2024/02/25 08:13:18;;;;;;;2.83;1.25;;;;;;;4.68;89.02;99105.41;10253905;28;20063;-78
2024/02/25 08:18:21;;;;;;;1.25;1.10;;;;;;;4.80;87.13;99107.97;10219502;28;20817;-78
2024/02/25 08:23:24;;;;;;;1.50;1.40;;;;;;;4.73;86.28;99114.72;10245508;28;20043;-78
2024/02/25 08:28:29;;;;;;;2.08;1.35;;;;;;;4.86;85.46;99108.47;10227070;28;20053;-78
2024/02/25 08:33:32;;;;;;;1.58;1.35;;;;;;;5.30;84.59;99115.66;10235876;28;20058;-77
2024/02/25 08:38:40;;;;;;;1.27;1.10;;;;;;;4.91;83.07;99115.13;10230013;28;20414;-78
2024/02/25 08:43:47;;;;;;;1.33;1.20;;;;;;;5.03;82.43;99103.53;10252339;28;20145;-77
2024/02/25 08:48:50;;;;;;;1.70;1.42;;;;;;;5.49;80.18;99107.91;10240058;28;20054;-77
2024/02/25 08:53:53;;;;;;;1.92;1.40;;;;;;;5.40;80.45;99105.97;10244430;28;20051;-77
2024/02/25 08:58:58;;;;;;;2.20;1.42;;;;;;;5.71;78.63;99099.00;10244698;28;20282;-78
2024/02/25 09:04:01;;;;;;;1.58;1.25;;;;;;;5.93;76.05;99108.78;10225505;28;20058;-78
2024/02/25 09:09:04;;;;;;;1.38;1.20;;;;;;;5.90;76.08;99103.69;10231982;28;20092;-77
2024/02/25 09:14:09;;;;;;;2.78;1.55;;;;;;;5.63;77.78;99108.59;10222879;28;20047;-78
2024/02/25 09:19:12;;;;;;;2.30;1.35;;;;;;;5.93;76.49;99110.59;10255472;28;20039;-78
2024/02/25 09:24:15;;;;;;;0.98;0.95;;;;;;;5.90;76.27;99105.53;10252921;28;20039;-78
2024/02/25 09:29:21;;;;;;;1.95;1.20;;;;;;;6.28;75.86;99112.16;10253352;28;20105;-79
2024/02/25 09:34:28;;;;;;;0.85;0.80;;;;;;;5.83;74.58;99117.63;10243407;28;20051;-79
2024/02/25 09:39:31;;;;;;;0.90;0.65;;;;;;;6.01;74.31;99115.31;10234146;28;20061;-79
2024/02/25 09:44:36;;;;;;;1.30;1.08;;;;;;;6.31;73.15;99117.25;10233499;28;20055;-79
2024/02/25 09:49:40;;;;;;;1.75;1.08;;;;;;;6.53;72.65;99111.81;10245638;28;20106;-78
2024/02/25 09:54:45;;;;;;;1.48;0.90;;;;;;;6.35;71.78;99111.50;10235176;28;20081;-78
2024/02/25 09:59:50;;;;;;;1.15;0.85;;;;;;;6.38;73.93;99111.25;10259676;28;21108;-79
2024/02/25 10:04:53;;;;;;;1.83;0.90;;;;;;;6.29;73.08;99119.19;10248494;28;20069;-78
2024/02/25 10:09:57;;;;;;;0.68;0.68;;;;;;;6.31;73.00;99119.91;10246525;28;20433;-79
2024/02/25 10:15:01;;;;;;;0.85;0.73;;;;;;;6.31;72.40;99120.75;10251783;28;21047;-78
2024/02/25 10:20:11;;;;;;;1.35;0.60;;;;;;;6.61;71.29;99114.66;10251924;28;20102;-78
2024/02/25 10:25:14;;;;;;;1.23;0.65;;;;;;;7.10;69.52;99109.63;10257308;28;20111;-78
2024/02/25 10:30:19;;;;;;;1.48;0.75;;;;;;;6.59;71.96;99110.44;10286515;28;20065;-78
2024/02/25 10:35:22;;;;;;;0.65;0.60;;;;;;;7.04;71.04;99102.16;10265255;28;20102;-78
2024/02/25 10:40:25;;;;;;;0.80;0.70;;;;;;;6.90;68.68;99110.50;10261048;28;20047;-78
2024/02/25 10:45:31;;;;;;;2.88;1.00;;;;;;;6.99;69.58;99105.25;10237164;28;20086;-78
2024/02/25 10:50:35;;;;;;;2.67;1.50;;;;;;;7.54;67.72;99096.03;10229928;28;20134;-79
2024/02/25 10:55:40;;;;;;;1.13;0.70;;;;;;;7.67;66.15;99086.78;10223523;28;20066;-79
2024/02/25 11:00:45;;;;;;;2.35;0.82;;;;;;;8.70;62.68;99095.28;10237449;28;20778;-80
2024/02/25 11:05:48;;;;;;;0.50;0.50;;;;;;;8.11;65.03;99092.59;10225697;28;20063;-79
2024/02/25 11:10:57;;;;;;;1.38;0.30;;;;;;;7.32;66.49;99102.41;10251807;28;20260;-80
2024/02/25 11:16:03;;;;;;;0.82;0.50;;;;;;;7.43;66.69;99094.28;10245104;28;20054;-79
2024/02/25 11:21:08;;;;;;;0.63;0.40;;;;;;;7.15;66.26;99102.06;10244480;28;20070;-78
2024/02/25 11:26:36;;;;;;;0.40;0.40;;;;;;;7.36;66.16;99090.50;10247121;28;20047;-79
2024/02/25 11:32:05;;;;;;;1.80;0.60;;;;;;;7.71;64.82;99085.53;10222823;28;20094;-79
2024/02/25 11:37:09;;;;;;;0.98;0.40;;;;;;;7.70;65.44;99089.16;10216286;28;20050;-79
2024/02/25 11:42:12;;;;;;;1.10;0.52;;;;;;;7.55;66.04;99093.22;10259148;28;20039;-77
2024/02/25 11:47:17;;;;;;;1.23;0.70;;;;;;;7.48;66.81;99076.88;10246584;28;20534;-79
2024/02/25 11:52:20;;;;;;;0.73;0.50;;;;;;;8.05;64.99;99077.13;10227468;28;20050;-79
2024/02/25 11:57:23;;;;;;;0.77;0.43;;;;;;;8.11;63.90;99073.03;10240298;28;20058;-79
2024/02/25 12:02:29;;;;;;;1.05;0.35;;;;;;;7.63;63.91;99080.03;10242477;28;20054;-79
2024/02/25 12:07:32;;;;;;;0.95;0.40;;;;;;;8.43;62.26;99063.88;10242876;28;20055;-79
2024/02/25 12:12:35;;;;;;;0.73;0.50;;;;;;;8.74;61.68;99064.56;10226881;28;20114;-79
2024/02/25 12:17:39;;;;;;;1.30;0.60;;;;;;;8.34;62.04;99055.72;10263660;28;20129;-79
2024/02/25 12:22:44;;;;;;;2.65;0.50;;;;;;;9.80;56.52;99048.97;10239538;28;20525;-79
2024/02/25 12:27:49;;;;;;;0.57;0.50;;;;;;;9.26;58.92;99049.69;10250815;28;20042;-80
2024/02/25 12:32:53;;;;;;;1.98;0.47;;;;;;;10.07;56.07;99042.75;10240182;28;20539;-79
2024/02/25 12:37:56;;;;;;;0.30;0.30;;;;;;;10.87;51.85;99039.97;10237231;28;20051;-79
2024/02/25 12:43:00;;;;;;;0.50;0.50;;;;;;;9.71;54.90;99048.06;10240956;28;20070;-79
2024/02/25 12:48:05;;;;;;;0.38;0.32;;;;;;;9.26;56.62;99049.69;10250060;28;20614;-78
2024/02/25 12:53:08;;;;;;;0.60;0.38;;;;;;;9.12;57.50;99052.88;10229329;28;20093;-78
2024/02/25 12:58:11;;;;;;;1.33;0.50;;;;;;;9.49;55.60;99041.28;10249786;28;20050;-78
2024/02/25 13:03:15;;;;;;;1.50;0.40;;;;;;;8.39;58.47;99042.78;10233047;28;20703;-77
2024/02/25 13:08:19;;;;;;;0.10;0.10;;;;;;;8.68;56.77;99051.75;10222979;28;20043;-79
2024/02/25 13:13:22;;;;;;;0.20;0.20;;;;;;;8.88;56.79;99044.50;10232037;28;20051;-77
2024/02/25 13:18:26;;;;;;;0.60;0.30;;;;;;;8.86;56.44;99035.75;10236120;28;20055;-77
2024/02/25 13:23:30;;;;;;;0.55;0.40;;;;;;;8.93;55.88;99027.00;10235280;28;20047;-78
2024/02/25 13:28:33;;;;;;;0.30;0.30;;;;;;;8.76;56.95;99033.13;10240229;28;20137;-77
2024/02/25 13:33:37;;;;;;;0.22;0.22;;;;;;;8.79;56.70;99031.00;10223093;28;20049;-77
2024/02/25 13:38:42;;;;;;;0.43;0.30;;;;;;;9.53;54.30;99034.59;10231729;28;20532;-77
2024/02/25 13:43:47;;;;;;;0.55;0.43;;;;;;;8.62;55.68;99026.41;10235306;28;20047;-77
2024/02/25 13:48:52;;;;;;;1.65;0.30;;;;;;;8.74;56.42;99022.56;10230315;28;20853;-78
2024/02/25 13:53:55;;;;;;;1.08;0.52;;;;;;;8.69;56.20;99030.19;10224694;28;20045;-77
2024/02/25 13:58:59;;;;;;;1.77;0.57;;;;;;;8.67;57.21;99026.00;10222428;28;20057;-77
2024/02/25 14:04:07;;;;;;;1.98;0.70;;;;;;;8.91;56.80;99017.44;10239878;28;20521;-77
2024/02/25 14:09:11;;;;;;;0.35;0.30;;;;;;;9.29;55.44;99019.91;10245045;28;20070;-78
2024/02/25 14:14:15;;;;;;;0.60;0.40;;;;;;;9.31;55.58;99024.31;10228318;28;20079;-78
2024/02/25 14:19:21;;;;;;;0.50;0.38;;;;;;;9.67;52.91;99014.47;10252037;28;20038;-77
2024/02/25 14:24:25;;;;;;;0.85;0.30;;;;;;;9.12;53.88;99018.03;10261816;28;20126;-77
2024/02/25 14:29:28;;;;;;;1.08;0.50;;;;;;;8.65;55.59;99019.94;10262688;28;20082;-79
2024/02/25 14:34:32;;;;;;;0.50;0.25;;;;;;;8.71;56.35;99016.66;10241405;28;20051;-78
2024/02/25 14:39:36;;;;;;;1.00;0.50;;;;;;;9.22;54.33;99020.69;10239118;28;20141;-79
2024/02/25 14:44:54;;;;;;;0.90;0.40;;;;;;;8.88;55.17;99021.25;10247657;28;21071;-78
2024/02/25 14:49:59;;;;;;;1.95;0.40;;;;;;;8.91;54.82;99023.63;10241978;28;20470;-79
2024/02/25 14:55:05;;;;;;;0.20;0.20;;;;;;;8.78;55.77;99026.66;10244912;28;20156;-78
2024/02/25 15:00:12;;;;;;;0.30;0.30;;;;;;;8.42;56.56;99033.63;10254418;28;20136;-78
2024/02/25 15:05:16;;;;;;;0.30;0.30;;;;;;;8.42;56.26;99020.22;10233758;28;20426;-78
2024/02/25 15:10:19;;;;;;;0.60;0.50;;;;;;;8.51;56.02;99011.38;10231334;28;20077;-78
2024/02/25 15:15:23;;;;;;;0.95;0.68;;;;;;;8.98;54.40;99011.34;10235838;28;20078;-78
2024/02/25 15:20:28;;;;;;;1.20;0.50;;;;;;;8.74;53.99;99013.69;10245305;28;20053;-78
2024/02/25 15:25:31;;;;;;;0.82;0.70;;;;;;;8.83;54.66;99010.13;10220559;28;20087;-77
2024/02/25 15:30:34;;;;;;;1.63;0.68;;;;;;;8.86;54.85;98999.16;10234734;28;20050;-78
2024/02/25 15:35:38;;;;;;;0.63;0.40;;;;;;;8.76;54.48;98998.34;10233508;28;20429;-78
2024/02/25 15:40:45;;;;;;;1.40;0.43;;;;;;;8.81;55.27;98990.72;10237352;28;20058;-78
2024/02/25 15:45:48;;;;;;;0.40;0.30;;;;;;;8.84;55.24;98987.72;10235383;28;20051;-79
2024/02/25 15:50:52;;;;;;;0.60;0.40;;;;;;;8.82;55.47;98997.75;10218914;28;20411;-79
2024/02/25 15:55:55;;;;;;;0.82;0.63;;;;;;;8.82;55.03;99001.25;10246034;28;20081;-79
2024/02/25 16:00:58;;;;;;;0.80;0.70;;;;;;;8.70;55.38;98988.22;10244751;28;20043;-79
2024/02/25 16:06:04;;;;;;;1.90;1.17;;;;;;;8.74;55.87;98994.94;10249141;28;20057;-79
2024/02/25 16:11:07;;;;;;;1.60;0.93;;;;;;;8.87;55.60;98990.09;10233919;28;20051;-78
2024/02/25 16:16:11;;;;;;;2.42;1.20;;;;;;;9.21;55.59;98979.63;10244851;28;20421;-78
2024/02/25 16:21:16;;;;;;;1.95;1.05;;;;;;;9.46;54.34;98988.81;10239477;28;20511;-78
2024/02/25 16:26:22;;;;;;;0.70;0.60;;;;;;;9.34;54.74;98990.00;10253966;28;20109;-78
2024/02/25 16:31:25;;;;;;;1.75;1.52;;;;;;;9.45;54.23;98986.28;10241949;28;20053;-78
2024/02/25 16:36:30;;;;;;;1.30;1.20;;;;;;;9.06;54.46;98979.31;10219425;28;20047;-77
2024/02/25 16:41:34;;;;;;;1.13;1.13;;;;;;;8.67;55.54;98991.19;10231866;28;20086;-78
2024/02/25 16:46:37;;;;;;;1.20;0.50;;;;;;;8.31;55.48;98991.81;10242445;28;20414;-78
2024/02/25 16:51:42;;;;;;;2.63;0.50;;;;;;;8.06;55.44;98997.72;10249871;28;20097;-78
2024/02/25 16:56:45;;;;;;;1.30;0.68;;;;;;;7.97;55.65;98993.25;10245332;28;20042;-78
2024/02/25 17:01:48;;;;;;;1.48;0.60;;;;;;;7.81;56.47;99007.16;10245789;28;20134;-78
2024/02/25 17:06:54;;;;;;;1.88;0.90;;;;;;;7.63;57.54;99012.38;10230792;28;20051;-78
2024/02/25 17:11:58;;;;;;;4.10;1.08;;;;;;;7.52;59.68;99020.53;10232316;28;20054;-79
2024/02/25 17:17:01;;;;;;;0.90;0.70;;;;;;;7.32;62.60;99022.28;10246009;28;20108;-79
2024/02/25 17:22:05;;;;;;;0.95;0.82;;;;;;;7.16;64.32;99023.66;10242504;28;20046;-77
2024/02/25 17:27:08;;;;;;;1.30;1.20;;;;;;;7.01;65.78;99031.19;10253468;28;20077;-77
2024/02/25 17:32:11;;;;;;;1.20;1.10;;;;;;;6.95;66.49;99031.72;10254015;28;21221;-78
2024/02/25 17:37:16;;;;;;;1.10;1.00;;;;;;;6.80;67.88;99023.22;10241335;28;20055;-77
2024/02/25 17:42:19;;;;;;;1.60;1.50;;;;;;;6.71;68.98;99031.16;10243802;28;20043;-77
2024/02/25 17:47:22;;;;;;;1.45;1.27;;;;;;;6.68;69.11;99036.75;10249123;28;20055;-77
2024/02/25 17:52:28;;;;;;;2.03;1.77;;;;;;;6.56;69.97;99028.00;10256287;28;20065;-78
2024/02/25 17:57:31;;;;;;;2.92;1.90;;;;;;;6.34;71.59;99027.16;10251510;28;20038;-78
2024/02/25 18:02:34;;;;;;;3.08;2.00;;;;;;;6.23;72.35;99032.56;10252609;28;20054;-77
2024/02/25 18:07:38;;;;;;;3.83;1.63;;;;;;;6.10;73.25;99040.72;10242204;28;20141;-78
2024/02/25 18:12:42;;;;;;;6.05;4.68;;;;;;;5.87;74.83;99044.44;10233883;28;20105;-77
2024/02/25 18:17:46;;;;;;;4.95;4.03;;;;;;;5.82;76.45;99044.84;10242995;28;20853;-78
2024/02/25 18:22:54;;;;;;;5.43;4.10;;;;;;;5.79;76.81;99045.09;10234876;28;20076;-77
2024/02/25 18:27:57;;;;;;;6.10;3.90;;;;;;;5.62;78.07;99045.63;10261574;28;20577;-78
2024/02/25 18:33:01;;;;;;;6.90;4.50;;;;;;;5.57;78.48;99047.81;10245202;28;20046;-77
2024/02/25 18:38:05;;;;;;;7.47;4.90;;;;;;;5.42;79.82;99050.75;10245954;28;20047;-77
2024/02/25 18:43:09;;;;;;;6.13;4.55;;;;;;;5.40;80.04;99052.72;10251564;28;20141;-77
2024/02/25 18:48:12;;;;;;;6.60;3.70;;;;;;;5.33;80.62;99048.00;10244856;28;20051;-78
2024/02/25 18:53:16;;;;;;;17.73;9.88;;;;;;;5.25;81.36;99052.13;10236264;28;20055;-77
2024/02/25 18:58:19;;;;;;;4.78;3.30;;;;;;;5.16;81.68;99044.88;10218318;28;20058;-77
2024/02/25 19:03:23;;;;;;;4.28;3.88;;;;;;;5.07;82.59;99050.91;10233785;28;20066;-78
2024/02/25 19:08:28;;;;;;;6.55;3.80;;;;;;;5.04;82.91;99052.00;10218768;28;20055;-78
2024/02/25 19:13:31;;;;;;;4.93;3.80;;;;;;;4.95;83.20;99055.38;10246655;28;20043;-78
2024/02/25 19:18:34;;;;;;;6.88;3.85;;;;;;;4.94;83.13;99059.00;10241566;28;20114;-78
2024/02/25 19:23:41;;;;;;;6.97;4.03;;;;;;;4.84;83.62;99061.53;10242074;28;20537;-78
2024/02/25 19:28:44;;;;;;;8.93;4.57;;;;;;;4.78;83.74;99062.00;10241172;28;20051;-78
2024/02/25 19:33:47;;;;;;;7.35;4.50;;;;;;;4.79;83.58;99062.84;10244927;28;20066;-80
2024/02/25 19:38:53;;;;;;;6.30;4.45;;;;;;;4.78;83.46;99066.50;10248558;28;20426;-80
2024/02/25 19:43:56;;;;;;;10.13;6.57;;;;;;;4.71;83.24;99070.59;10241470;28;20070;-79
2024/02/25 19:48:59;;;;;;;8.90;6.63;;;;;;;4.67;83.51;99066.50;10242687;28;20461;-78
2024/02/25 19:54:04;;;;;;;7.57;5.25;;;;;;;4.58;84.11;99062.69;10239270;28;20450;-80
2024/02/25 19:59:08;;;;;;;6.63;5.00;;;;;;;4.59;84.18;99075.06;10238337;28;20055;-79
2024/02/25 20:04:11;;;;;;;7.55;5.82;;;;;;;4.54;84.31;99058.59;10238893;28;20054;-79
2024/02/25 20:09:16;;;;;;;8.75;5.57;;;;;;;4.47;84.26;99046.72;10228428;28;20043;-79
2024/02/25 20:14:20;;;;;;;6.07;4.68;;;;;;;4.36;84.48;99047.53;10238532;28;20538;-79
2024/02/25 20:19:23;;;;;;;4.65;3.83;;;;;;;4.29;84.75;99049.00;10246791;28;20556;-79
2024/02/25 20:24:28;;;;;;;7.13;4.68;;;;;;;4.18;85.66;99045.34;10244650;28;20443;-79
2024/02/25 20:29:32;;;;;;;4.60;3.95;;;;;;;4.13;86.32;99046.66;10255416;28;20039;-78
2024/02/25 20:34:35;;;;;;;5.85;3.85;;;;;;;4.14;86.41;99057.19;10244952;28;20070;-81
2024/02/25 20:39:41;;;;;;;5.05;3.92;;;;;;;4.09;86.53;99043.38;10232555;28;20059;-78
2024/02/25 20:44:44;;;;;;;6.68;4.00;;;;;;;4.07;86.71;99049.78;10241207;28;20046;-80
2024/02/25 20:49:47;;;;;;;7.75;4.30;;;;;;;4.08;86.88;99044.31;10242625;28;20058;-79
2024/02/25 20:54:53;;;;;;;5.75;4.25;;;;;;;4.11;86.87;99045.91;10256094;28;20046;-79
2024/02/25 20:59:57;;;;;;;4.22;3.60;;;;;;;4.11;86.33;99041.47;10239575;28;20058;-79
2024/02/25 21:05:00;;;;;;;4.30;3.63;;;;;;;4.08;86.06;99023.06;10218558;28;20523;-79
2024/02/25 21:10:05;;;;;;;5.28;3.67;;;;;;;4.00;85.60;99024.63;10226006;28;20050;-79
2024/02/25 21:15:09;;;;;;;4.70;3.10;;;;;;;3.93;85.83;99032.22;10244283;28;20054;-79
2024/02/25 21:20:12;;;;;;;5.10;3.92;;;;;;;3.87;86.15;99032.69;10247831;28;20113;-79
2024/02/25 21:25:20;;;;;;;3.28;2.88;;;;;;;3.81;86.38;99033.13;10234838;28;20521;-81
2024/02/25 21:30:23;;;;;;;3.10;2.75;;;;;;;3.80;87.44;99024.31;10254130;28;20181;-80
2024/02/25 21:35:27;;;;;;;3.47;3.17;;;;;;;3.77;87.92;99026.34;10246286;28;20043;-80
2024/02/25 21:40:32;;;;;;;4.25;3.13;;;;;;;3.75;88.28;99022.94;10253890;28;20532;-79
2024/02/25 21:45:35;;;;;;;4.07;2.95;;;;;;;3.81;87.46;99006.56;10251965;28;20046;-79
2024/02/25 21:50:38;;;;;;;4.72;3.78;;;;;;;3.73;87.63;99015.13;10233211;28;20054;-78
2024/02/25 21:55:43;;;;;;;4.85;3.35;;;;;;;3.70;87.62;99016.19;10233489;28;20064;-79
2024/02/25 22:00:46;;;;;;;4.05;3.17;;;;;;;3.70;87.44;99013.53;10233365;28;20407;-79
2024/02/25 22:05:49;;;;;;;4.93;3.28;;;;;;;3.65;87.56;99028.13;10239210;28;20077;-78
2024/02/25 22:10:53;;;;;;;4.22;2.83;;;;;;;3.65;87.52;99018.34;10213299;29;20674;-78
2024/02/25 22:15:57;;;;;;;4.72;3.30;;;;;;;3.71;87.00;99020.53;10247395;28;20073;-78
2024/02/25 22:21:00;;;;;;;3.85;2.90;;;;;;;3.70;86.75;99018.84;10251074;28;20145;-78
2024/02/25 22:26:04;;;;;;;5.47;2.90;;;;;;;3.79;86.13;99013.81;10237577;28;20533;-78
2024/02/25 22:31:07;;;;;;;5.38;2.85;;;;;;;3.85;85.33;99018.66;10249872;28;20157;-78
2024/02/25 22:36:11;;;;;;;3.38;2.70;;;;;;;3.90;84.72;99024.47;10272814;28;20062;-80
2024/02/25 22:41:15;;;;;;;3.53;2.50;;;;;;;3.91;84.27;99016.38;10246852;28;20159;-78
2024/02/25 22:46:18;;;;;;;2.63;2.42;;;;;;;3.87;84.17;99027.38;10212896;28;20082;-78
2024/02/25 22:51:21;;;;;;;2.72;2.20;;;;;;;3.85;83.94;99031.94;10222302;28;20046;-77
2024/02/25 22:56:26;;;;;;;4.10;2.40;;;;;;;3.75;83.67;99034.41;10240332;28;20069;-79
2024/02/25 23:01:30;;;;;;;3.50;2.15;;;;;;;3.69;83.85;99035.72;10236349;28;20691;-80
2024/02/25 23:06:33;;;;;;;2.70;2.50;;;;;;;3.65;84.19;99028.13;10227399;28;20061;-80
2024/02/25 23:11:38;;;;;;;5.10;2.70;;;;;;;3.58;84.21;99033.00;10231138;28;20046;-79
2024/02/25 23:16:44;;;;;;;4.53;2.67;;;;;;;3.52;84.36;99022.84;10227570;28;20054;-79
2024/02/25 23:21:47;;;;;;;3.95;3.05;;;;;;;3.46;84.71;99024.16;10242055;28;20058;-79
2024/02/25 23:26:51;;;;;;;3.67;3.05;;;;;;;3.45;84.85;99026.91;10243510;28;20051;-79
2024/02/25 23:31:54;;;;;;;4.78;2.75;;;;;;;3.40;84.79;99021.06;10226510;28;20118;-79
2024/02/25 23:36:57;;;;;;;4.55;2.90;;;;;;;3.36;85.04;99015.16;10212657;28;21098;-79
2024/02/25 23:42:02;;;;;;;4.53;3.45;;;;;;;3.33;85.01;99007.41;10221766;28;20078;-80
2024/02/25 23:47:06;;;;;;;5.18;4.28;;;;;;;3.28;85.00;99010.41;10235706;28;20162;-79
2024/02/25 23:52:09;;;;;;;8.68;4.95;;;;;;;3.22;85.24;99002.03;10217549;28;20458;-79